Time;durP1;ratioP1;P1;durP2;ratioP2;P2;SDS_P1;SDS_P2;PMS_P1;PMS_P2;Temp;Humidity;BMP_temperature;BMP_pressure;BME280_temperature;BME280_humidity;BME280_pressure;Samples;Min_cycle;Max_cycle;Signal;HPM_P1;HPM_P2
2022/11/21 00:00:23;;;;;;;29.00;21.17;;;9.20;99.90;;;9.12;86.99;100464.56;5096471;28;20039;-81
2022/11/21 00:02:51;;;;;;;27.83;21.02;;;9.10;99.90;;;9.05;86.84;100452.31;5114928;28;20043;-81
2022/11/21 00:05:20;;;;;;;27.92;21.63;;;9.10;99.90;;;8.91;86.78;100456.78;5114629;28;20130;-82
2022/11/21 00:07:48;;;;;;;31.13;21.27;;;8.90;99.90;;;8.24;87.42;100442.91;5114566;28;20043;-81
2022/11/21 00:10:17;;;;;;;28.40;22.40;;;8.50;99.90;;;8.46;89.03;100454.31;5096098;28;20093;-81
2022/11/21 00:12:47;;;;;;;30.17;22.70;;;8.30;99.90;;;8.50;88.16;100456.03;5114342;28;20051;-81
2022/11/21 00:15:15;;;;;;;29.30;22.50;;;8.30;99.90;;;8.41;87.80;100450.78;5114529;28;20078;-82
2022/11/21 00:17:44;;;;;;;30.40;23.55;;;8.30;99.90;;;8.18;88.00;100416.56;5096084;28;20137;-82
2022/11/21 00:20:12;;;;;;;28.48;22.80;;;8.30;99.90;;;7.96;88.44;100434.16;5114242;28;20374;-82
2022/11/21 00:22:40;;;;;;;29.63;23.25;;;8.00;99.90;;;7.72;88.50;100433.31;5114242;28;20040;-83
2022/11/21 00:25:10;;;;;;;31.80;23.27;;;7.70;99.90;;;7.48;89.09;100420.13;5114206;28;20043;-83
2022/11/21 00:27:38;;;;;;;30.63;23.73;;;7.60;99.90;;;7.57;89.83;100441.19;5114488;28;20122;-82
2022/11/21 00:30:11;;;;;;;31.02;23.65;;;7.50;99.90;;;7.40;90.08;100435.00;5114693;28;20097;-82
2022/11/21 00:32:39;;;;;;;31.98;24.27;;;7.40;99.90;;;7.24;90.40;100437.63;5114220;28;20122;-82
2022/11/21 00:35:08;;;;;;;29.55;23.20;;;7.30;99.90;;;7.32;91.12;100424.50;5115220;28;20050;-83
2022/11/21 00:37:37;;;;;;;30.52;23.45;;;7.20;99.90;;;7.27;91.01;100435.03;5115048;28;20043;-83
2022/11/21 00:40:06;;;;;;;30.83;23.52;;;7.20;99.90;;;7.36;91.21;100439.41;5114604;28;20502;-83
2022/11/21 00:42:35;;;;;;;30.95;23.52;;;7.30;99.90;;;7.44;91.27;100439.41;5114855;28;20135;-83
2022/11/21 00:45:04;;;;;;;28.55;22.42;;;7.40;99.90;;;7.05;91.14;100358.69;5096861;28;20040;-83
2022/11/21 00:47:33;;;;;;;28.48;22.08;;;7.40;99.90;;;7.58;91.17;100438.56;5114602;28;20039;-83
2022/11/21 00:50:02;;;;;;;27.03;22.33;;;7.50;99.90;;;7.51;90.87;100435.94;5115589;28;20069;-83
2022/11/21 00:52:30;;;;;;;27.75;22.00;;;7.50;99.90;;;7.41;90.60;100421.88;5097600;28;20138;-83
2022/11/21 00:54:59;;;;;;;29.52;23.48;;;7.40;99.90;;;7.28;90.27;100441.13;5115343;28;20141;-84
2022/11/21 00:57:27;;;;;;;27.52;22.58;;;7.30;99.90;;;7.47;91.16;100450.81;5114746;28;20058;-83
2022/11/21 00:59:55;;;;;;;30.80;22.85;;;7.30;99.90;;;7.19;91.46;100446.38;5114663;28;20408;-83
2022/11/21 01:02:24;;;;;;;33.45;24.52;;;7.10;99.90;;;7.34;92.43;100453.44;5114637;28;20393;-83
2022/11/21 01:04:53;;;;;;;32.90;24.13;;;7.20;99.90;;;7.49;92.37;100464.84;5095091;28;20097;-83
2022/11/21 01:07:22;;;;;;;34.30;25.37;;;7.30;99.90;;;7.59;92.17;100468.41;5113685;28;20035;-83
2022/11/21 01:09:50;;;;;;;30.92;23.63;;;7.50;99.90;;;7.70;92.26;100474.53;5113210;28;20288;-83
2022/11/21 01:12:18;;;;;;;32.33;24.60;;;7.50;99.90;;;7.73;92.01;100471.91;5113680;28;20050;-83
2022/11/21 01:14:47;;;;;;;30.73;24.42;;;7.60;99.90;;;7.78;91.75;100460.47;5113103;28;20071;-83
2022/11/21 01:17:15;;;;;;;33.40;24.80;;;7.70;99.90;;;7.81;91.64;100462.25;5113396;28;20039;-83
2022/11/21 01:19:43;;;;;;;34.70;25.08;;;7.70;99.90;;;7.51;91.93;100446.47;5113616;28;20102;-83
2022/11/21 01:22:13;;;;;;;38.53;25.00;;;7.50;99.90;;;7.46;91.91;100441.19;5113515;28;20085;-84
2022/11/21 01:24:42;;;;;;;38.50;26.35;;;7.50;99.90;;;6.59;93.50;100433.91;5094950;28;20485;-83
2022/11/21 01:27:10;;;;;;;31.15;24.88;;;6.80;99.90;;;6.77;94.72;100433.13;5112973;28;20126;-84
2022/11/21 01:29:38;;;;;;;35.58;26.90;;;6.80;99.90;;;6.67;94.73;100407.66;5095055;28;20071;-82
2022/11/21 01:32:07;;;;;;;36.13;26.20;;;6.70;99.90;;;6.76;94.74;100426.09;5113310;28;20050;-83
2022/11/21 01:34:35;;;;;;;35.80;27.05;;;6.70;99.90;;;6.58;95.08;100420.78;5113066;28;20126;-84
2022/11/21 01:37:03;;;;;;;38.92;28.27;;;6.60;99.90;;;5.90;96.94;100418.66;5112858;28;20486;-82
2022/11/21 01:39:33;;;;;;;37.58;27.98;;;6.00;99.90;;;5.53;98.49;100419.19;5112703;28;20118;-84
2022/11/21 01:42:01;;;;;;;41.67;29.10;;;5.60;99.90;;;5.69;99.98;100421.06;5113072;28;20051;-83
2022/11/21 01:44:48;;;;;;;41.05;30.42;;;5.60;99.90;;;5.75;99.78;100428.97;5094512;28;20043;-83
2022/11/21 01:47:17;;;;;;;42.72;30.55;;;5.60;99.90;;;5.72;99.24;100431.59;5113022;28;20043;-83
2022/11/21 01:49:47;;;;;;;41.20;30.05;;;5.70;99.90;;;5.58;99.79;100424.47;5113279;28;20042;-83
2022/11/21 01:52:21;;;;;;;42.33;30.33;;;5.50;99.90;;;5.60;100.00;100434.09;5094780;28;20069;-82
2022/11/21 01:54:56;;;;;;;45.13;30.95;;;5.50;99.90;;;5.23;100.00;100427.66;5113020;28;20123;-82
2022/11/21 01:57:28;;;;;;;48.22;31.48;;;5.20;99.90;;;5.38;100.00;100434.81;5112544;28;20126;-83
2022/11/21 02:00:01;;;;;;;43.55;32.22;;;5.20;99.90;;;5.76;100.00;100437.72;5112673;28;20032;-82
2022/11/21 02:02:37;;;;;;;44.55;32.35;;;5.50;99.90;;;6.04;100.00;100421.38;5112596;28;20134;-82
2022/11/21 02:05:09;;;;;;;44.70;32.10;;;5.80;99.90;;;6.19;100.00;100422.31;5094745;28;20050;-82
2022/11/21 02:07:43;;;;;;;60.40;31.13;;;6.00;99.90;;;5.70;99.37;100432.44;5112536;28;20139;-84
2022/11/21 02:10:14;;;;;;;42.58;31.65;;;5.80;99.90;;;5.64;100.00;100395.66;5112575;28;20035;-82
2022/11/21 02:12:49;;;;;;;43.63;31.77;;;5.80;99.90;;;6.07;100.00;100419.63;5094617;28;20043;-82
2022/11/21 02:15:18;;;;;;;42.10;31.98;;;6.00;99.90;;;6.37;99.92;100432.94;5114846;28;20050;-82
2022/11/21 02:17:46;;;;;;;43.08;31.95;;;6.30;99.90;;;6.38;99.07;100425.94;5098023;28;20048;-83
2022/11/21 02:20:17;;;;;;;59.00;32.70;;;6.40;99.90;;;6.54;98.61;100454.06;5116609;28;20052;-84
2022/11/21 02:22:56;;;;;;;67.15;31.83;;;6.50;99.90;;;6.45;97.71;100438.22;5116524;28;20072;-83
2022/11/21 02:25:28;;;;;;;41.30;30.23;;;6.50;99.90;;;6.10;98.65;100435.41;5116564;28;20043;-84
2022/11/21 02:28:01;;;;;;;94.80;32.00;;;6.10;99.90;;;6.19;98.33;100430.19;5116375;28;20049;-83
2022/11/21 02:30:32;;;;;;;139.65;33.15;;;6.20;99.90;;;5.63;98.25;100423.66;5115975;28;20127;-83
2022/11/21 02:33:00;;;;;;;195.98;35.45;;;5.70;99.90;;;5.44;99.86;100416.47;5116128;28;20066;-83
2022/11/21 02:35:28;;;;;;;86.00;32.65;;;5.50;99.90;;;5.46;100.00;100425.22;5098101;28;20043;-82
2022/11/21 02:38:01;;;;;;;145.13;33.85;;;5.40;99.90;;;5.34;100.00;100425.16;5115789;28;20405;-83
2022/11/21 02:40:35;;;;;;;253.43;39.03;;;5.40;99.90;;;5.11;100.00;100421.44;5097708;28;20138;-82
2022/11/21 02:43:12;;;;;;;82.25;33.72;;;5.20;99.90;;;5.48;100.00;100429.63;5115620;28;20119;-81
2022/11/21 02:45:42;;;;;;;335.98;42.53;;;5.30;99.90;;;5.28;100.00;100422.47;5116332;28;20070;-83
2022/11/21 02:48:12;;;;;;;152.35;34.65;;;5.20;99.90;;;5.10;100.00;100424.88;5116333;28;20075;-82
2022/11/21 02:50:42;;;;;;;153.40;33.10;;;5.10;99.90;;;4.87;100.00;100392.34;5115437;28;20039;-83
2022/11/21 02:53:12;;;;;;;;;;;4.90;99.90;;;4.81;100.00;100392.25;5116038;28;20389;-82
2022/11/21 02:55:43;;;;;;;183.53;35.40;;;4.80;99.90;;;4.67;100.00;100399.06;5114469;28;19964;-82
2022/11/21 02:58:12;;;;;;;110.17;31.03;;;4.60;99.90;;;4.75;100.00;100395.69;5115275;28;20055;-82
2022/11/21 03:00:42;;;;;;;206.37;33.43;;;4.60;99.90;;;4.69;100.00;100418.31;5115391;28;20453;-82
2022/11/21 03:03:11;;;;;;;56.05;30.25;;;4.60;99.90;;;4.86;100.00;100398.44;5115832;28;20088;-81
2022/11/21 03:05:40;;;;;;;213.40;34.67;;;4.70;99.90;;;3.92;100.00;100269.06;5115295;28;20043;-81
2022/11/21 03:08:09;;;;;;;115.70;31.30;;;4.70;99.90;;;5.00;100.00;100413.44;5115583;28;20122;-82
2022/11/21 03:10:37;;;;;;;56.77;29.80;;;4.90;99.90;;;5.02;100.00;100382.88;5097209;28;20043;-82
2022/11/21 03:13:07;;;;;;;168.32;33.25;;;5.00;99.90;;;4.89;100.00;100388.00;5097123;28;20047;-81
2022/11/21 03:15:36;;;;;;;121.57;30.33;;;5.00;99.90;;;4.49;100.00;100377.06;5115167;28;20473;-82
2022/11/21 03:18:05;;;;;;;110.82;30.85;;;4.60;99.90;;;4.42;100.00;100390.94;5115568;28;20366;-82
2022/11/21 03:20:34;;;;;;;114.50;28.63;;;4.40;99.90;;;4.67;100.00;100389.50;5115254;28;20036;-81
2022/11/21 03:23:03;;;;;;;97.47;28.20;;;4.60;99.90;;;4.65;100.00;100392.94;5096950;28;20047;-67
2022/11/21 03:25:32;;;;;;;74.83;27.07;;;4.50;99.90;;;4.58;100.00;100369.34;5115146;28;20289;-68
2022/11/21 03:28:00;;;;;;;65.53;26.40;;;4.60;99.90;;;4.54;100.00;100375.41;5114413;28;20043;-65
2022/11/21 03:30:29;;;;;;;76.37;26.23;;;4.50;99.90;;;4.43;100.00;100383.97;5115201;28;20035;-65
2022/11/21 03:32:58;;;;;;;55.88;25.88;;;4.30;99.90;;;4.32;100.00;100378.59;5115153;28;20477;-65
2022/11/21 03:35:26;;;;;;;44.83;25.87;;;4.20;99.90;;;4.68;100.00;100379.91;5115275;28;20043;-65
2022/11/21 03:37:55;;;;;;;35.17;24.97;;;4.40;99.90;;;4.99;100.00;100382.88;5115059;28;20130;-65
2022/11/21 03:40:23;;;;;;;41.80;26.10;;;4.70;99.90;;;5.23;100.00;100384.81;5115566;28;20039;-65
2022/11/21 03:42:51;;;;;;;33.65;24.33;;;5.10;99.90;;;5.36;100.00;100373.59;5114947;28;20115;-65
2022/11/21 03:45:19;;;;;;;33.10;25.00;;;5.20;99.90;;;5.50;100.00;100369.31;5115187;28;20044;-64
2022/11/21 03:47:49;;;;;;;31.40;24.52;;;5.40;99.90;;;5.58;100.00;100370.25;5114847;28;20035;-64
2022/11/21 03:50:19;;;;;;;44.20;26.30;;;5.50;99.90;;;5.61;100.00;100370.31;5114867;28;20049;-65
2022/11/21 03:52:48;;;;;;;45.63;24.20;;;5.60;99.90;;;5.35;100.00;100377.97;5115111;28;20051;-64
2022/11/21 03:55:16;;;;;;;74.60;23.80;;;5.40;99.90;;;4.74;100.00;100351.16;5115307;28;20047;-64
2022/11/21 03:57:44;;;;;;;80.60;24.47;;;5.00;99.90;;;5.00;100.00;100371.50;5114440;28;20806;-64
2022/11/21 04:00:15;;;;;;;41.87;23.47;;;5.00;99.90;;;5.34;100.00;100372.72;5114646;28;20039;-64
2022/11/21 04:02:43;;;;;;;;;;;5.20;99.90;;;5.08;100.00;100359.38;5115004;28;20126;-64
2022/11/21 04:05:13;;;;;;;124.47;23.90;;;5.20;99.90;;;5.01;100.00;100372.41;5113441;28;19927;-64
2022/11/21 04:07:41;;;;;;;186.90;28.80;;;5.00;99.90;;;4.74;100.00;100369.50;5114743;28;20051;-64
2022/11/21 04:10:10;;;;;;;227.77;28.80;;;4.70;99.90;;;4.54;100.00;100369.28;5114380;28;20048;-65
2022/11/21 04:12:38;;;;;;;160.63;29.00;;;4.50;99.90;;;4.37;100.00;100369.09;5114352;28;20048;-64
2022/11/21 04:15:07;;;;;;;163.53;29.03;;;4.30;99.90;;;4.52;100.00;100361.41;5096365;28;20485;-64
2022/11/21 04:17:41;;;;;;;151.77;27.63;;;4.40;99.90;;;4.67;100.00;100360.69;5114298;28;20047;-65
2022/11/21 04:20:12;;;;;;;109.70;26.40;;;4.60;99.90;;;4.27;100.00;100304.38;5114287;28;20043;-64
2022/11/21 04:22:40;;;;;;;103.60;28.53;;;4.50;99.90;;;4.40;100.00;100353.41;5114266;28;20044;-64
2022/11/21 04:25:09;;;;;;;207.77;30.37;;;4.30;99.90;;;4.45;100.00;100354.31;5114376;28;20040;-64
2022/11/21 04:27:37;;;;;;;163.73;29.13;;;4.40;99.90;;;4.17;100.00;100326.06;5114172;28;20052;-64
2022/11/21 04:30:07;;;;;;;160.97;32.33;;;4.30;99.90;;;4.32;100.00;100346.31;5114363;28;20054;-64
2022/11/21 04:32:35;;;;;;;113.88;28.92;;;4.30;99.90;;;4.37;100.00;100356.00;5096023;28;20047;-64
2022/11/21 04:35:05;;;;;;;137.00;29.63;;;4.30;99.90;;;4.25;100.00;100349.72;5113972;28;20472;-65
2022/11/21 04:37:34;;;;;;;103.33;29.63;;;4.20;99.90;;;4.11;100.00;100346.91;5113865;28;20074;-64
2022/11/21 04:40:03;;;;;;;104.40;27.80;;;4.00;99.90;;;4.15;100.00;100343.50;5113911;28;20134;-64
2022/11/21 04:42:31;;;;;;;93.50;29.07;;;4.00;99.90;;;3.88;100.00;100300.38;5113896;28;20288;-64
2022/11/21 04:45:00;;;;;;;79.17;27.87;;;4.00;99.90;;;3.59;100.00;100211.13;5113729;28;20065;-64
2022/11/21 04:47:28;;;;;;;61.97;28.47;;;4.00;99.90;;;4.25;100.00;100319.19;5113817;28;20051;-64
2022/11/21 04:49:56;;;;;;;66.50;29.83;;;4.10;99.90;;;4.36;100.00;100317.56;5113698;28;20069;-64
2022/11/21 04:52:24;;;;;;;88.93;30.10;;;4.20;99.90;;;4.28;100.00;100313.09;5113688;28;20508;-64
2022/11/21 04:54:54;;;;;;;81.13;31.60;;;4.20;99.90;;;4.47;100.00;100310.72;5113696;28;20047;-64
2022/11/21 04:57:23;;;;;;;42.97;30.77;;;4.40;99.90;;;4.67;100.00;100300.44;5113989;28;20035;-65
2022/11/21 04:59:52;;;;;;;42.37;29.87;;;4.50;99.90;;;4.94;100.00;100310.28;5073625;28;20135;-65
2022/11/21 05:02:20;;;;;;;39.03;30.50;;;4.80;99.90;;;4.99;100.00;100311.25;5073033;28;20055;-65
2022/11/21 05:04:49;;;;;;;91.43;32.67;;;4.90;99.90;;;4.93;100.00;100326.91;5072948;28;20082;-65
2022/11/21 05:07:17;;;;;;;87.37;32.37;;;4.90;99.90;;;4.92;100.00;100305.06;5073012;28;20119;-65
2022/11/21 05:09:46;;;;;;;88.33;29.70;;;5.00;99.90;;;4.68;100.00;100309.19;5072931;28;20059;-65
2022/11/21 05:15:01;;;;;;;71.57;30.23;;;4.50;99.90;;;4.68;100.00;100291.75;5072000;28;20501;-66
2022/11/21 05:17:30;;;;;;;43.33;30.90;;;4.70;99.90;;;4.95;100.00;100306.84;5073163;28;20153;-65
2022/11/21 05:19:58;;;;;;;41.53;29.23;;;4.90;99.90;;;5.20;100.00;100303.56;5072901;28;20064;-66
2022/11/21 05:22:26;;;;;;;51.57;29.53;;;5.10;99.90;;;5.16;100.00;100278.19;5072876;28;20037;-66
2022/11/21 05:24:55;;;;;;;63.07;30.10;;;5.20;99.90;;;5.01;100.00;100294.66;5073243;28;20036;-66
2022/11/21 05:27:24;;;;;;;119.43;32.20;;;5.10;99.90;;;4.83;100.00;100288.38;5073076;28;20444;-66
2022/11/21 05:29:54;;;;;;;147.38;32.25;;;4.90;99.90;;;4.85;100.00;100282.28;5073058;28;20072;-66
2022/11/21 05:32:23;;;;;;;76.50;30.53;;;4.90;99.90;;;4.11;100.00;100145.44;5072842;28;20048;-65
2022/11/21 05:34:51;;;;;;;116.87;34.30;;;4.90;99.90;;;4.81;100.00;100266.53;5073010;28;20095;-66
2022/11/21 05:37:20;;;;;;;57.80;33.30;;;4.90;99.90;;;4.80;100.00;100272.66;5072997;28;20064;-65
2022/11/21 05:39:49;;;;;;;44.17;31.47;;;4.80;99.90;;;4.86;100.00;100268.31;5072727;28;20131;-66
2022/11/21 05:43:44;;;;;;;84.60;32.50;;;4.80;99.90;;;4.85;100.00;100265.69;5072947;28;20040;-66
2022/11/21 05:45:08;;;;;;;92.13;33.60;;;4.80;99.90;;;4.80;100.00;100263.00;5073083;28;20040;-66
2022/11/21 05:47:37;;;;;;;111.10;34.07;;;4.80;99.90;;;4.85;100.00;100258.72;5071613;28;20434;-65
2022/11/21 05:50:06;;;;;;;53.80;31.63;;;4.80;99.90;;;4.80;100.00;100265.63;5073906;28;20437;-65
2022/11/21 05:52:34;;;;;;;58.87;31.57;;;4.70;99.90;;;4.78;100.00;100261.28;5076420;28;20040;-66
2022/11/21 05:55:03;;;;;;;46.20;32.50;;;4.60;99.90;;;4.96;100.00;100269.25;5076686;28;20122;-67
2022/11/21 05:57:31;;;;;;;43.97;32.00;;;4.80;99.90;;;5.15;100.00;100263.34;5078046;28;20048;-65
2022/11/21 05:59:59;;;;;;;41.58;31.60;;;5.00;99.90;;;5.39;100.00;100266.09;5117090;28;20040;-66
2022/11/21 06:05:15;;;;;;;43.65;30.85;;;5.40;99.90;;;5.73;100.00;100267.19;5116836;28;20101;-66
2022/11/21 06:07:43;;;;;;;46.88;32.72;;;5.60;99.90;;;5.89;100.00;100254.19;5116841;28;20443;-66
2022/11/21 06:10:12;;;;;;;39.05;29.85;;;5.80;99.90;;;5.86;100.00;100229.69;5116832;28;20126;-66
2022/11/21 06:12:40;;;;;;;42.22;31.73;;;5.90;99.90;;;6.13;100.00;100243.78;5117095;28;20036;-66
2022/11/21 06:15:09;;;;;;;72.13;33.78;;;6.10;99.90;;;6.17;100.00;100240.31;5116725;28;20531;-65
2022/11/21 06:17:39;;;;;;;38.03;28.25;;;6.20;99.90;;;6.31;100.00;100250.81;5116703;28;20039;-65
2022/11/21 06:20:10;;;;;;;37.20;28.75;;;6.30;99.90;;;6.33;100.00;100251.69;5116665;28;20078;-65
2022/11/21 06:22:38;;;;;;;37.75;28.13;;;6.30;99.90;;;6.37;100.00;100235.97;5116631;28;20040;-65
2022/11/21 06:25:07;;;;;;;37.25;27.90;;;6.40;99.90;;;6.34;100.00;100246.47;5098454;28;20040;-65
2022/11/21 06:27:35;;;;;;;38.83;28.60;;;6.40;99.90;;;6.24;100.00;100243.81;5117017;28;20053;-65
2022/11/21 06:30:04;;;;;;;36.35;28.40;;;6.30;99.90;;;6.24;100.00;100239.44;5116379;28;20534;-64
2022/11/21 06:32:38;;;;;;;34.05;27.60;;;6.30;99.90;;;6.12;100.00;100226.25;5116215;28;20546;-64
2022/11/21 06:35:07;;;;;;;36.22;26.70;;;6.20;99.90;;;5.96;100.00;100223.59;5116381;28;20039;-65
2022/11/21 06:37:36;;;;;;;37.88;28.23;;;6.00;99.90;;;6.09;100.00;100228.00;5116201;28;20530;-66
2022/11/21 06:40:06;;;;;;;35.83;27.80;;;6.00;99.90;;;6.20;100.00;100219.28;5116218;28;20043;-65
2022/11/21 06:42:34;;;;;;;37.70;28.60;;;6.20;99.90;;;6.10;100.00;100204.38;5116471;28;20469;-65
2022/11/21 06:45:02;;;;;;;33.08;26.65;;;6.10;99.90;;;6.38;100.00;100205.31;5115934;28;20504;-65
2022/11/21 06:47:34;;;;;;;38.67;28.42;;;6.30;99.90;;;5.92;100.00;100172.81;5098024;28;20052;-65
2022/11/21 06:50:04;;;;;;;37.42;27.75;;;6.20;99.90;;;6.26;100.00;100206.19;5116325;28;20043;-65
2022/11/21 06:52:33;;;;;;;36.78;28.58;;;6.20;99.90;;;6.05;100.00;100198.25;5115869;28;20047;-65
2022/11/21 06:55:01;;;;;;;34.33;26.75;;;6.10;99.90;;;5.74;100.00;100191.13;5115880;28;20035;-65
2022/11/21 06:57:31;;;;;;;31.17;26.20;;;5.80;99.90;;;5.42;100.00;100153.38;5116004;28;20123;-65
2022/11/21 06:59:59;;;;;;;34.05;26.27;;;5.60;99.90;;;5.85;100.00;100194.69;5116212;28;20059;-65
2022/11/21 07:02:28;;;;;;;30.67;26.08;;;5.60;99.90;;;5.89;100.00;100206.94;5114218;28;20036;-65
2022/11/21 07:04:56;;;;;;;35.65;26.83;;;5.70;99.90;;;5.58;100.00;100202.41;5097541;28;20067;-64
2022/11/21 07:07:26;;;;;;;35.53;27.75;;;5.50;99.90;;;5.53;100.00;100201.53;5115501;28;20112;-64
2022/11/21 07:09:54;;;;;;;34.55;26.45;;;5.40;99.90;;;5.37;100.00;100163.84;5115414;28;20568;-64
2022/11/21 07:15:10;;;;;;;35.58;26.17;;;5.40;99.90;;;5.57;100.00;100186.66;5115607;28;20473;-65
2022/11/21 07:17:39;;;;;;;37.72;27.15;;;5.40;99.90;;;5.48;100.00;100183.13;5115576;28;20126;-65
2022/11/21 07:20:09;;;;;;;33.55;26.55;;;5.40;99.90;;;5.49;100.00;100189.25;5115454;28;20044;-66
2022/11/21 07:22:38;;;;;;;37.28;26.77;;;5.30;99.90;;;5.42;100.00;100156.88;5115632;28;20071;-64
2022/11/21 07:25:07;;;;;;;34.55;25.25;;;5.40;99.90;;;5.35;100.00;100143.72;5115561;28;20441;-64
2022/11/21 07:27:36;;;;;;;34.83;26.45;;;5.40;99.90;;;5.52;100.00;100188.41;5115265;28;20043;-65
2022/11/21 07:30:05;;;;;;;34.25;27.27;;;5.40;99.90;;;5.82;100.00;100194.66;5115201;28;20054;-65
2022/11/21 07:32:33;;;;;;;33.38;26.38;;;5.60;99.90;;;6.00;100.00;100191.25;5115166;28;20047;-65
2022/11/21 07:35:01;;;;;;;40.75;28.60;;;5.80;99.90;;;5.73;100.00;100189.34;5115146;28;20513;-65
2022/11/21 07:37:30;;;;;;;33.67;27.48;;;5.60;99.90;;;5.72;100.00;100194.59;5115305;28;20039;-65
2022/11/21 07:39:59;;;;;;;33.08;25.90;;;5.50;99.90;;;5.80;100.00;100180.66;5114958;28;20047;-65
2022/11/21 07:42:28;;;;;;;31.93;25.63;;;5.60;99.90;;;5.83;100.00;100179.75;5115252;28;20050;-65
2022/11/21 07:44:56;;;;;;;32.90;25.83;;;5.60;99.90;;;5.93;100.00;100166.72;5115261;28;20133;-66
2022/11/21 07:47:25;;;;;;;32.45;24.45;;;5.80;99.90;;;6.02;100.00;100177.22;5114793;28;20431;-65
2022/11/21 07:49:53;;;;;;;33.85;24.77;;;5.80;99.90;;;5.99;100.00;100150.09;5114887;28;20040;-66
2022/11/21 07:52:21;;;;;;;33.30;23.88;;;5.90;99.90;;;6.11;100.00;100172.03;5096768;28;20416;-67
2022/11/21 07:54:50;;;;;;;29.45;23.30;;;5.90;99.90;;;6.24;100.00;100173.78;5114616;28;20042;-66
2022/11/21 07:57:19;;;;;;;30.98;23.05;;;6.10;99.90;;;6.52;100.00;100174.72;5114750;28;20378;-66
2022/11/21 07:59:48;;;;;;;28.67;21.67;;;6.20;99.90;;;6.73;100.00;100179.97;5115066;28;20142;-66
2022/11/21 08:02:20;;;;;;;33.72;22.02;;;6.50;99.90;;;6.79;100.00;100168.56;5115159;28;20048;-67
2022/11/21 08:04:48;;;;;;;26.15;21.33;;;6.60;99.90;;;6.83;100.00;100172.94;5115168;28;20048;-66
2022/11/21 08:07:19;;;;;;;28.80;21.63;;;6.60;99.90;;;7.07;100.00;100160.66;5114364;28;20508;-66
2022/11/21 08:09:48;;;;;;;27.30;20.27;;;6.80;99.90;;;7.33;100.00;100157.97;5114421;28;20488;-66
2022/11/21 08:12:17;;;;;;;26.40;17.90;;;7.10;99.90;;;7.43;100.00;100149.16;5114329;28;20044;-66
2022/11/21 08:14:47;;;;;;;25.77;17.23;;;7.20;99.90;;;7.67;100.00;100180.63;5114342;28;20081;-66
2022/11/21 08:17:17;;;;;;;26.30;17.77;;;7.40;99.90;;;7.86;100.00;100145.44;5114249;28;20040;-65
2022/11/21 08:19:45;;;;;;;24.60;15.48;;;7.60;99.90;;;8.04;100.00;100137.44;5114053;28;20108;-66
2022/11/21 08:22:13;;;;;;;19.85;15.45;;;7.80;99.90;;;8.30;100.00;100139.97;5114123;28;20035;-67
2022/11/21 08:24:42;;;;;;;22.55;14.07;;;8.00;99.90;;;8.72;100.00;100128.19;5114517;28;20040;-66
2022/11/21 08:27:10;;;;;;;22.13;13.60;;;8.50;99.90;;;9.23;100.00;100124.16;5096053;28;20050;-67
2022/11/21 08:29:38;;;;;;;18.75;12.57;;;9.00;99.90;;;9.54;98.41;100115.84;5114539;28;20043;-67
2022/11/21 08:32:08;;;;;;;21.80;12.27;;;9.40;99.90;;;10.07;97.41;100131.00;5114324;28;20414;-68
2022/11/21 08:34:37;;;;;;;18.92;11.13;;;9.90;99.90;;;10.49;94.47;100142.75;5114158;28;20043;-67
2022/11/21 08:37:05;;;;;;;23.17;12.93;;;10.30;99.90;;;10.82;92.29;100127.16;5113922;28;20053;-69
2022/11/21 08:39:34;;;;;;;17.63;10.88;;;10.70;99.90;;;11.26;89.94;100144.91;5095568;28;20052;-67
2022/11/21 08:42:03;;;;;;;14.93;9.15;;;11.10;99.90;;;11.54;88.17;100106.38;5113840;28;20408;-67
2022/11/21 08:44:32;;;;;;;16.48;9.77;;;11.60;99.90;;;12.02;85.72;100141.56;5113820;28;20075;-67
2022/11/21 08:47:02;;;;;;;16.73;10.13;;;11.90;99.90;;;12.34;82.83;100144.38;5114247;28;20039;-68
2022/11/21 08:49:32;;;;;;;15.27;8.88;;;12.30;99.90;;;12.60;80.21;100143.78;5114318;28;20047;-66
2022/11/21 08:52:00;;;;;;;16.30;9.30;;;12.60;99.90;;;12.82;77.98;100146.75;5113732;28;20450;-63
2022/11/21 08:54:28;;;;;;;14.30;8.20;;;12.80;99.90;;;12.96;76.27;100145.50;5113850;28;20062;-67
2022/11/21 08:56:57;;;;;;;11.68;8.43;;;12.90;99.90;;;13.20;75.54;100136.06;5113708;28;20443;-66
2022/11/21 08:59:25;;;;;;;12.98;7.43;;;13.20;99.90;;;13.59;74.50;100141.13;5113839;28;20051;-67
2022/11/21 09:01:54;;;;;;;15.75;8.07;;;13.50;99.90;;;13.53;73.72;100093.47;5095300;28;20094;-68
2022/11/21 09:04:22;;;;;;;12.90;7.80;;;13.70;99.90;;;13.82;72.86;100111.22;5113824;28;20047;-65
2022/11/21 09:06:52;;;;;;;13.23;7.35;;;13.90;99.90;;;14.09;73.58;100104.22;5113735;28;20048;-66
2022/11/21 09:09:20;;;;;;;10.55;6.20;;;13.90;99.90;;;14.08;73.29;100103.34;5113737;28;20121;-66
2022/11/21 09:11:52;;;;;;;9.52;5.47;;;14.00;99.90;;;14.12;73.19;100105.00;5095618;28;20497;-65
2022/11/21 09:20:03;;;;;;;9.70;5.32;;;14.70;99.90;;;15.08;70.99;100106.22;5113743;28;20062;-66
2022/11/21 09:22:33;;;;;;;16.42;5.72;;;15.00;99.90;;;15.06;69.89;100115.22;5113327;28;20040;-65
2022/11/21 09:25:01;;;;;;;14.02;5.30;;;15.10;99.90;;;15.13;69.96;100106.09;5114171;28;20054;-66
2022/11/21 09:27:31;;;;;;;12.45;4.95;;;15.10;99.90;;;15.27;69.47;100109.97;5117375;28;20028;-66
2022/11/21 09:29:59;;;;;;;13.93;5.53;;;15.20;99.90;;;15.46;69.03;100101.38;5117415;28;20390;-66
2022/11/21 09:32:27;;;;;;;13.55;5.18;;;15.30;99.90;;;15.23;68.18;100105.69;5099337;28;20101;-66
2022/11/21 09:34:56;;;;;;;11.77;5.00;;;15.20;99.90;;;14.32;69.09;100107.91;5117455;28;20386;-66
2022/11/21 09:37:24;;;;;;;9.73;4.85;;;14.40;99.90;;;13.87;71.52;100087.16;5117495;28;20048;-66
2022/11/21 09:39:54;;;;;;;17.33;5.30;;;13.80;99.90;;;13.66;72.34;100099.31;5117350;28;20501;-66
2022/11/21 09:42:50;;;;;;;9.70;6.07;;;13.60;99.90;;;13.38;73.31;100101.91;5117308;28;20067;-66
2022/11/21 09:45:25;;;;;;;13.32;5.60;;;13.40;99.90;;;13.14;74.10;100083.97;5099457;28;20075;-66
2022/11/21 09:47:55;;;;;;;10.10;4.88;;;13.20;99.90;;;13.35;74.49;100091.38;5099225;28;20513;-66
2022/11/21 09:50:30;;;;;;;15.30;5.65;;;13.20;99.90;;;13.08;74.44;100077.97;5099183;28;20051;-66
2022/11/21 09:53:03;;;;;;;14.00;5.75;;;13.20;99.90;;;13.13;74.97;100082.25;5117171;28;20134;-66
2022/11/21 09:55:44;;;;;;;13.23;5.32;;;13.10;99.90;;;13.09;74.90;100085.88;5117169;28;20044;-65
2022/11/21 09:58:23;;;;;;;15.60;5.63;;;13.10;99.90;;;12.88;75.71;100070.50;5116858;28;20050;-65
2022/11/21 10:00:52;;;;;;;13.93;5.53;;;12.80;99.90;;;12.61;75.89;100061.50;5098913;28;20048;-66
2022/11/21 10:03:25;;;;;;;11.60;5.60;;;12.70;99.90;;;12.21;77.35;100065.16;5116953;28;20040;-66
2022/11/21 10:05:59;;;;;;;19.73;6.13;;;12.30;99.90;;;12.04;77.50;100051.44;5116952;28;20447;-65
2022/11/21 10:08:35;;;;;;;15.07;6.03;;;12.10;99.90;;;11.89;78.73;100035.88;5116911;28;20079;-66
2022/11/21 10:11:18;;;;;;;11.82;5.40;;;12.10;99.90;;;12.09;79.29;100049.53;5116838;28;20040;-65
2022/11/21 10:14:01;;;;;;;12.02;5.75;;;12.00;99.90;;;12.26;79.14;100039.41;5116990;28;20044;-66
2022/11/21 10:16:43;;;;;;;16.27;6.10;;;12.20;99.90;;;12.34;78.68;100040.09;5117096;28;20044;-65
2022/11/21 10:19:57;;;;;;;15.45;5.60;;;12.30;99.90;;;12.52;78.20;100036.97;5116733;28;20036;-66
2022/11/21 10:22:48;;;;;;;14.32;6.30;;;12.40;99.90;;;12.13;78.31;100017.63;5104037;28;20054;-65
2022/11/21 10:25:23;;;;;;;15.35;5.50;;;12.30;99.90;;;12.19;78.28;100021.91;5098674;28;20047;-66
2022/11/21 10:28:02;;;;;;;16.65;6.10;;;12.20;99.90;;;12.21;78.07;100036.00;5116426;28;20043;-65
2022/11/21 10:30:30;;;;;;;11.27;5.93;;;12.20;99.90;;;12.26;78.52;100031.44;5116403;28;20070;-66
2022/11/21 10:33:03;;;;;;;12.88;6.00;;;12.10;99.90;;;11.95;78.80;100003.94;5116934;28;20065;-66